createdAt,value
2023-01-21T00:01:14.730Z,144.03
2023-01-21T00:03:42.446Z,143.20
2023-01-21T00:06:10.427Z,144.33
2023-01-21T00:08:37.669Z,145.70
2023-01-21T00:11:11.293Z,147.40
2023-01-21T00:13:38.460Z,146.30
2023-01-21T00:16:06.533Z,147.13
2023-01-21T00:18:34.928Z,142.47
2023-01-21T00:21:02.368Z,141.23
2023-01-21T00:23:30.018Z,140.07
2023-01-21T00:26:06.472Z,142.70
2023-01-21T00:28:36.280Z,145.27
2023-01-21T00:31:06.974Z,141.57
2023-01-21T00:33:34.867Z,136.13
2023-01-21T00:36:07.084Z,142.70
2023-01-21T00:38:35.199Z,141.73
2023-01-21T00:41:09.562Z,139.60
2023-01-21T00:43:37.487Z,141.77
2023-01-21T00:46:05.274Z,137.17
2023-01-21T00:48:33.313Z,142.80
2023-01-21T00:51:01.079Z,139.53
2023-01-21T00:53:31.654Z,144.97
2023-01-21T00:56:04.197Z,140.47
2023-01-21T00:58:31.518Z,139.60
2023-01-21T01:01:26.974Z,143.80
2023-01-21T01:03:54.103Z,140.83
2023-01-21T01:06:23.840Z,141.47
2023-01-21T01:08:52.020Z,136.90
2023-01-21T01:11:21.620Z,138.93
2023-01-21T01:13:48.730Z,139.10
2023-01-21T01:16:16.571Z,140.33
2023-01-21T01:18:44.248Z,141.57
2023-01-21T01:21:17.869Z,137.30
2023-01-21T01:23:46.081Z,146.57
2023-01-21T01:26:16.743Z,144.27
2023-01-21T01:28:44.342Z,136.57
2023-01-21T01:31:17.802Z,135.73
2023-01-21T01:33:45.552Z,136.10
2023-01-21T01:36:25.202Z,136.30
2023-01-21T01:38:53.539Z,137.17
2023-01-21T01:41:25.428Z,137.10
2023-01-21T01:44:03.473Z,140.87
2023-01-21T01:46:36.970Z,136.33
2023-01-21T01:49:14.720Z,135.50
2023-01-21T01:51:59.268Z,136.07
2023-01-21T01:54:35.221Z,132.17
2023-01-21T01:57:07.123Z,133.77
2023-01-21T01:59:34.949Z,133.83
2023-01-21T02:02:08.165Z,134.47
2023-01-21T02:04:43.023Z,134.83
2023-01-21T02:07:10.596Z,133.30
2023-01-21T02:09:38.144Z,134.57
2023-01-21T02:12:06.642Z,133.50
2023-01-21T02:14:42.793Z,134.63
2023-01-21T02:17:33.937Z,134.43
2023-01-21T02:20:28.867Z,132.53
2023-01-21T02:23:16.301Z,130.43
2023-01-21T02:26:21.623Z,132.43
2023-01-21T02:29:23.589Z,130.90
2023-01-21T02:32:08.562Z,134.10
2023-01-21T02:34:47.411Z,128.00
2023-01-21T02:37:27.075Z,130.93
2023-01-21T02:40:12.591Z,135.37
2023-01-21T02:42:48.038Z,132.03
2023-01-21T02:45:19.083Z,131.27
2023-01-21T02:48:06.033Z,130.23
2023-01-21T02:50:50.346Z,134.30
2023-01-21T02:53:32.463Z,134.30
2023-01-21T02:56:16.605Z,154.70
2023-01-21T02:58:52.109Z,130.33
2023-01-21T03:01:40.278Z,133.93
2023-01-21T03:04:25.457Z,131.67
2023-01-21T03:07:34.175Z,130.50
2023-01-21T03:10:32.173Z,130.07
2023-01-21T03:13:40.525Z,131.07
2023-01-21T03:16:30.379Z,127.13
2023-01-21T03:19:04.442Z,132.80
2023-01-21T03:21:33.995Z,130.23
2023-01-21T03:24:02.715Z,132.03
2023-01-21T03:26:39.488Z,131.77
2023-01-21T03:29:13.446Z,130.87
2023-01-21T03:31:42.964Z,128.20
2023-01-21T03:34:14.047Z,131.37
2023-01-21T03:37:19.155Z,130.03
2023-01-21T03:40:16.063Z,127.47
2023-01-21T03:42:45.778Z,130.93
2023-01-21T03:45:13.764Z,127.07
2023-01-21T03:47:52.212Z,129.67
2023-01-21T03:50:38.928Z,127.00
2023-01-21T03:53:07.079Z,131.40
2023-01-21T03:55:36.657Z,131.00
2023-01-21T03:58:04.197Z,127.83
2023-01-21T04:00:31.667Z,129.43
2023-01-21T04:02:59.083Z,128.47
2023-01-21T04:05:26.169Z,130.30
2023-01-21T04:07:53.584Z,129.10
2023-01-21T04:10:20.997Z,133.70
2023-01-21T04:12:48.471Z,128.33
2023-01-21T04:15:15.948Z,128.57
2023-01-21T04:17:43.385Z,131.57
2023-01-21T04:20:11.486Z,128.23
2023-01-21T04:22:38.974Z,131.33
2023-01-21T04:25:06.375Z,126.47
2023-01-21T04:27:33.815Z,130.60
2023-01-21T04:30:01.224Z,132.37
2023-01-21T04:32:28.642Z,131.63
2023-01-21T04:34:56.105Z,127.37
2023-01-21T04:37:23.603Z,132.07
2023-01-21T04:39:51.113Z,130.47
2023-01-21T04:42:18.553Z,128.13
2023-01-21T04:44:46.014Z,127.47
2023-01-21T04:47:13.475Z,127.47
2023-01-21T04:49:40.925Z,126.60
2023-01-21T04:52:09.273Z,127.70
2023-01-21T04:54:37.018Z,127.47
2023-01-21T04:57:04.488Z,126.20
2023-01-21T04:59:31.899Z,128.67
2023-01-21T05:01:59.328Z,130.43
2023-01-21T05:04:26.751Z,127.87
2023-01-21T05:06:54.256Z,129.00
2023-01-21T05:09:21.712Z,126.27
2023-01-21T05:11:49.142Z,125.73
2023-01-21T05:14:16.576Z,126.03
2023-01-21T05:16:44.063Z,126.13
2023-01-21T05:19:11.659Z,124.80
2023-01-21T05:21:39.191Z,125.50
2023-01-21T05:24:06.614Z,127.40
2023-01-21T05:26:34.072Z,124.70
2023-01-21T05:29:01.523Z,125.67
2023-01-21T05:31:29.065Z,126.70
2023-01-21T05:33:57.817Z,126.60
2023-01-21T05:36:25.400Z,127.63
2023-01-21T05:38:52.857Z,136.53
2023-01-21T05:41:20.668Z,128.23
2023-01-21T05:43:48.150Z,127.50
2023-01-21T05:46:15.825Z,126.67
2023-01-21T05:48:43.281Z,127.70
2023-01-21T05:51:10.887Z,128.07
2023-01-21T05:53:38.415Z,126.73
2023-01-21T05:56:06.135Z,127.40
2023-01-21T05:58:33.592Z,124.90
2023-01-21T06:01:01.097Z,127.23
2023-01-21T06:03:28.602Z,126.40
2023-01-21T06:05:56.080Z,128.07
2023-01-21T06:08:23.547Z,128.67
2023-01-21T06:10:50.997Z,128.70
2023-01-21T06:13:18.489Z,129.27
2023-01-21T06:15:46.008Z,125.30
2023-01-21T06:18:13.502Z,127.90
2023-01-21T06:20:41.141Z,128.13
2023-01-21T06:23:08.581Z,125.80
2023-01-21T06:25:36.099Z,126.13
2023-01-21T06:28:03.546Z,129.40
2023-01-21T06:30:30.991Z,125.77
2023-01-21T06:32:58.542Z,128.07
2023-01-21T06:35:26.045Z,128.20
2023-01-21T06:37:53.497Z,128.10
2023-01-21T06:40:20.961Z,127.30
2023-01-21T06:42:49.518Z,126.77
2023-01-21T06:45:17.516Z,129.20
2023-01-21T06:47:45.549Z,124.97
2023-01-21T06:50:16.226Z,127.17
2023-01-21T06:52:46.152Z,128.43
2023-01-21T06:55:15.084Z,128.00
2023-01-21T06:57:44.332Z,127.70
2023-01-21T07:00:13.189Z,125.37
2023-01-21T07:02:40.783Z,134.83
2023-01-21T07:05:08.290Z,128.63
2023-01-21T07:07:36.104Z,127.83
2023-01-21T07:10:03.998Z,127.23
2023-01-21T07:12:31.861Z,127.60
2023-01-21T07:14:59.292Z,129.47
2023-01-21T07:17:26.773Z,135.17
2023-01-21T07:19:54.199Z,155.00
2023-01-21T07:22:21.657Z,128.20
2023-01-21T07:24:49.110Z,131.23
2023-01-21T07:27:16.615Z,131.17
2023-01-21T07:29:44.060Z,129.10
2023-01-21T07:32:11.491Z,129.07
2023-01-21T07:34:38.931Z,126.30
2023-01-21T07:37:06.363Z,127.83
2023-01-21T07:39:33.818Z,127.63
2023-01-21T07:42:01.279Z,131.10
2023-01-21T07:44:28.810Z,126.03
2023-01-21T07:46:56.276Z,126.37
2023-01-21T07:49:23.745Z,130.30
2023-01-21T07:51:55.702Z,128.90
2023-01-21T07:54:23.151Z,126.40
2023-01-21T07:56:50.597Z,125.40
2023-01-21T07:59:18.069Z,139.03
2023-01-21T08:01:45.595Z,126.67
2023-01-21T08:04:13.142Z,129.00
2023-01-21T08:06:43.352Z,128.47
2023-01-21T08:09:11.412Z,128.60
2023-01-21T08:11:40.200Z,127.93
2023-01-21T08:14:07.641Z,127.33
2023-01-21T08:16:35.145Z,127.47
2023-01-21T08:19:02.578Z,125.43
2023-01-21T08:21:29.997Z,125.03
2023-01-21T08:23:57.417Z,124.83
2023-01-21T08:26:25.812Z,127.43
2023-01-21T08:28:56.128Z,128.60
2023-01-21T08:31:23.715Z,130.43
2023-01-21T08:33:51.237Z,129.47
2023-01-21T08:36:18.691Z,128.63
2023-01-21T08:38:48.539Z,128.17
2023-01-21T08:41:17.804Z,134.10
2023-01-21T08:43:45.300Z,128.50
2023-01-21T08:46:13.022Z,127.40
2023-01-21T08:48:40.783Z,129.63
2023-01-21T08:51:08.311Z,132.10
2023-01-21T08:53:35.924Z,128.83
2023-01-21T08:56:05.111Z,128.50
2023-01-21T08:58:33.723Z,127.50
2023-01-21T09:01:08.811Z,129.53
2023-01-21T09:03:36.711Z,128.77
2023-01-21T09:06:05.675Z,131.30
2023-01-21T09:08:33.495Z,132.40
2023-01-21T09:11:02.512Z,130.47
2023-01-21T09:13:38.767Z,130.53
2023-01-21T09:16:21.313Z,130.13
2023-01-21T09:18:49.211Z,129.50
2023-01-21T09:21:16.938Z,128.27
2023-01-21T09:23:44.532Z,132.63
2023-01-21T09:26:21.428Z,128.97
2023-01-21T09:29:00.114Z,132.53
2023-01-21T09:31:30.088Z,131.90
2023-01-21T09:34:01.363Z,152.33
2023-01-21T09:36:32.402Z,135.13
2023-01-21T09:39:00.256Z,129.40
2023-01-21T09:41:33.129Z,133.87
2023-01-21T09:44:35.541Z,131.03
2023-01-21T09:47:48.050Z,134.23
2023-01-21T09:50:22.876Z,134.27
2023-01-21T09:53:01.209Z,129.97
2023-01-21T09:55:43.718Z,130.63
2023-01-21T09:58:49.602Z,131.77
2023-01-21T10:01:33.887Z,129.23
2023-01-21T10:04:18.863Z,132.27
2023-01-21T10:06:55.435Z,131.10
2023-01-21T10:09:43.017Z,129.57
2023-01-21T10:12:24.285Z,131.53
2023-01-21T10:15:24.278Z,130.40
2023-01-21T10:18:12.312Z,129.67
2023-01-21T10:20:53.363Z,130.50
2023-01-21T10:23:22.987Z,132.23
2023-01-21T10:25:50.833Z,128.90
2023-01-21T10:28:28.431Z,130.97
2023-01-21T10:31:20.461Z,131.07
2023-01-21T10:33:48.109Z,131.00
2023-01-21T10:36:38.416Z,130.30
2023-01-21T10:39:29.755Z,136.00
2023-01-21T10:42:21.798Z,136.53
2023-01-21T10:45:29.924Z,134.67
2023-01-21T10:48:12.436Z,128.93
2023-01-21T10:50:50.426Z,140.00
2023-01-21T10:53:42.217Z,130.77
2023-01-21T10:56:40.400Z,135.03
2023-01-21T10:59:15.259Z,133.30
2023-01-21T11:01:49.494Z,272.23
2023-01-21T11:04:21.506Z,173.43
2023-01-21T11:07:01.019Z,133.90
2023-01-21T11:09:34.559Z,140.40
2023-01-21T11:12:03.034Z,136.23
2023-01-21T11:14:30.482Z,134.10
2023-01-21T11:16:58.197Z,141.47
2023-01-21T11:19:32.526Z,135.70
2023-01-21T11:22:06.808Z,135.90
2023-01-21T11:24:45.987Z,140.23
2023-01-21T11:27:28.949Z,135.37
2023-01-21T11:29:56.483Z,136.40
2023-01-21T11:32:28.888Z,137.93
2023-01-21T11:35:10.674Z,139.73
2023-01-21T11:37:38.596Z,142.50
2023-01-21T11:40:15.475Z,138.43
2023-01-21T11:42:53.420Z,135.27
2023-01-21T11:45:33.283Z,140.27
2023-01-21T11:48:01.075Z,132.67
2023-01-21T11:50:34.787Z,139.77
2023-01-21T11:53:12.342Z,135.73
2023-01-21T11:55:52.826Z,141.43
2023-01-21T11:58:39.320Z,141.60
2023-01-21T12:01:19.280Z,137.03
2023-01-21T12:03:53.339Z,139.53
2023-01-21T12:06:24.835Z,138.77
2023-01-21T12:08:56.402Z,138.50
2023-01-21T12:11:27.178Z,143.73
2023-01-21T12:14:43.763Z,139.47
2023-01-21T12:17:49.126Z,143.70
2023-01-21T12:20:30.183Z,140.93
2023-01-21T12:22:57.583Z,138.67
2023-01-21T12:25:41.563Z,145.00
2023-01-21T12:28:37.652Z,139.77
2023-01-21T12:31:29.554Z,142.03
2023-01-21T12:34:35.779Z,139.50
2023-01-21T12:37:13.494Z,143.73
2023-01-21T12:39:42.584Z,147.47
2023-01-21T12:42:22.271Z,146.00
2023-01-21T12:44:53.245Z,144.97
2023-01-21T12:47:31.152Z,144.87
2023-01-21T12:50:31.661Z,140.93
2023-01-21T12:53:35.601Z,141.50
2023-01-21T12:56:29.200Z,146.53
2023-01-21T12:59:08.473Z,142.13
2023-01-21T13:02:05.696Z,145.10
2023-01-21T13:04:58.507Z,144.07
2023-01-21T13:07:45.391Z,142.43
2023-01-21T13:10:21.318Z,138.53
2023-01-21T13:13:02.898Z,146.70
2023-01-21T13:15:35.293Z,146.43
2023-01-21T13:18:19.022Z,145.17
2023-01-21T13:20:57.726Z,140.93
2023-01-21T13:23:48.288Z,145.57
2023-01-21T13:26:27.687Z,141.63
2023-01-21T13:29:29.921Z,147.07
2023-01-21T13:32:39.483Z,146.40
2023-01-21T13:35:34.055Z,143.47
2023-01-21T13:38:26.942Z,147.97
2023-01-21T13:41:19.825Z,147.33
2023-01-21T13:44:21.777Z,141.50
2023-01-21T13:47:18.345Z,148.93
2023-01-21T13:49:48.583Z,150.43
2023-01-21T13:52:55.764Z,142.63
2023-01-21T13:55:36.155Z,143.13
2023-01-21T13:58:07.161Z,142.93
2023-01-21T14:01:03.595Z,151.90
2023-01-21T14:04:11.023Z,146.70
2023-01-21T14:06:56.785Z,146.30
2023-01-21T14:09:51.532Z,144.33
2023-01-21T14:12:37.444Z,152.07
2023-01-21T14:15:39.875Z,151.30
2023-01-21T14:19:01.111Z,151.20
2023-01-21T14:22:02.597Z,147.43
2023-01-21T14:25:07.248Z,153.33
2023-01-21T14:28:07.586Z,150.27
2023-01-21T14:30:48.194Z,153.97
2023-01-21T14:33:21.634Z,147.03
2023-01-21T14:36:11.999Z,155.53
2023-01-21T14:39:03.115Z,144.97
2023-01-21T14:42:02.417Z,175.93
2023-01-21T14:44:48.997Z,151.30
2023-01-21T14:47:22.878Z,150.27
2023-01-21T14:49:53.776Z,150.13
2023-01-21T14:52:34.376Z,150.23
2023-01-21T14:55:01.982Z,151.00
2023-01-21T14:57:37.223Z,149.77
2023-01-21T15:00:34.744Z,154.03
2023-01-21T15:03:17.625Z,151.10
2023-01-21T15:05:50.739Z,148.27
2023-01-21T15:08:45.594Z,159.77
2023-01-21T15:11:37.355Z,156.43
2023-01-21T15:14:39.459Z,151.10
2023-01-21T15:18:04.027Z,150.13
2023-01-21T15:20:43.168Z,166.13
2023-01-21T15:23:37.957Z,154.03
2023-01-21T15:26:34.409Z,160.93
2023-01-21T15:29:33.617Z,173.07
2023-01-21T15:32:22.123Z,150.93
2023-01-21T15:34:56.945Z,150.60
2023-01-21T15:37:27.173Z,163.23
2023-01-21T15:40:12.624Z,156.87
2023-01-21T15:43:03.554Z,157.23
2023-01-21T15:45:36.447Z,151.53
2023-01-21T15:48:40.769Z,160.37
2023-01-21T15:51:29.784Z,151.67
2023-01-21T15:54:07.322Z,155.90
2023-01-21T15:57:05.617Z,157.87
2023-01-21T15:59:47.670Z,153.57
2023-01-21T16:02:19.062Z,156.63
2023-01-21T16:05:21.986Z,152.00
2023-01-21T16:08:14.018Z,149.23
2023-01-21T16:11:30.876Z,159.37
2023-01-21T16:14:36.341Z,170.90
2023-01-21T16:17:36.053Z,167.27
2023-01-21T16:20:06.731Z,153.60
2023-01-21T16:22:36.602Z,162.77
2023-01-21T16:25:10.231Z,157.60
2023-01-21T16:27:37.478Z,158.27
2023-01-21T16:30:08.474Z,159.57
2023-01-21T16:32:37.489Z,151.03
2023-01-21T16:35:05.433Z,158.83
2023-01-21T16:37:33.172Z,164.57
2023-01-21T16:40:09.383Z,167.37
2023-01-21T16:42:38.488Z,165.80
2023-01-21T16:45:21.688Z,162.67
2023-01-21T16:47:57.310Z,165.53
2023-01-21T16:50:28.650Z,170.33
2023-01-21T16:52:57.624Z,174.10
2023-01-21T16:55:29.267Z,169.47
2023-01-21T16:57:58.618Z,175.50
2023-01-21T17:00:32.423Z,181.77
2023-01-21T17:03:00.710Z,185.17
2023-01-21T17:05:34.846Z,170.30
2023-01-21T17:08:10.175Z,176.07
2023-01-21T17:11:02.949Z,162.90
2023-01-21T17:13:31.646Z,165.37
2023-01-21T17:16:03.375Z,158.73
2023-01-21T17:18:57.622Z,161.90
2023-01-21T17:21:36.779Z,166.03
2023-01-21T17:24:15.277Z,172.70
2023-01-21T17:26:51.046Z,161.23
2023-01-21T17:29:26.627Z,162.40
2023-01-21T17:32:05.627Z,182.33
2023-01-21T17:34:37.862Z,171.40
2023-01-21T17:37:57.043Z,171.63
2023-01-21T17:41:03.554Z,157.20
2023-01-21T17:43:30.722Z,161.67
2023-01-21T17:45:58.138Z,166.13
2023-01-21T17:48:38.428Z,166.63
2023-01-21T17:51:28.309Z,161.63
2023-01-21T17:53:59.464Z,168.40
2023-01-21T17:56:50.049Z,161.23
2023-01-21T17:59:35.022Z,160.43
2023-01-21T18:02:04.883Z,161.63
2023-01-21T18:04:31.943Z,164.63
2023-01-21T18:06:59.122Z,164.57
2023-01-21T18:09:28.251Z,161.13
2023-01-21T18:11:58.116Z,164.47
2023-01-21T18:14:26.774Z,164.60
2023-01-21T18:16:54.433Z,163.90
2023-01-21T18:19:32.742Z,157.97
2023-01-21T18:22:01.567Z,168.70
2023-01-21T18:24:28.983Z,157.37
2023-01-21T18:26:58.367Z,160.07
2023-01-21T18:29:30.632Z,168.40
2023-01-21T18:31:58.928Z,160.53
2023-01-21T18:34:26.156Z,160.17
2023-01-21T18:36:53.647Z,166.50
2023-01-21T18:39:21.573Z,160.60
2023-01-21T18:41:48.659Z,164.50
2023-01-21T18:44:16.357Z,162.03
2023-01-21T18:46:43.738Z,162.27
2023-01-21T18:49:20.401Z,161.73
2023-01-21T18:51:47.878Z,155.87
2023-01-21T18:54:16.402Z,160.67
2023-01-21T18:56:44.608Z,159.90
2023-01-21T18:59:14.903Z,166.90
2023-01-21T19:01:43.624Z,166.50
2023-01-21T19:04:18.234Z,156.70
2023-01-21T19:06:50.502Z,159.70
2023-01-21T19:09:25.647Z,165.40
2023-01-21T19:11:52.958Z,161.77
2023-01-21T19:14:20.113Z,174.57
2023-01-21T19:16:47.439Z,156.63
2023-01-21T19:19:19.117Z,160.67
2023-01-21T19:21:46.738Z,170.30
2023-01-21T19:24:14.177Z,161.63
2023-01-21T19:26:41.390Z,162.23
2023-01-21T19:29:14.631Z,160.07
2023-01-21T19:31:41.751Z,165.07
2023-01-21T19:34:10.370Z,165.50
2023-01-21T19:36:38.391Z,164.80
2023-01-21T19:39:16.593Z,167.93
2023-01-21T19:41:43.798Z,162.53
2023-01-21T19:44:10.861Z,163.10
2023-01-21T19:46:38.048Z,168.40
2023-01-21T19:49:16.624Z,163.33
2023-01-21T19:51:44.603Z,169.07
2023-01-21T19:54:11.718Z,166.83
2023-01-21T19:56:38.894Z,171.57
2023-01-21T19:59:06.060Z,162.70
2023-01-21T20:01:33.136Z,162.90
2023-01-21T20:04:01.120Z,164.73
2023-01-21T20:06:37.516Z,168.50
2023-01-21T20:09:05.224Z,170.57
2023-01-21T20:11:32.539Z,177.53
2023-01-21T20:13:59.969Z,169.60
2023-01-21T20:16:27.395Z,164.07
2023-01-21T20:18:56.195Z,165.20
2023-01-21T20:21:23.368Z,164.07
2023-01-21T20:23:50.885Z,172.37
2023-01-21T20:26:22.976Z,159.90
2023-01-21T20:28:51.549Z,166.13
2023-01-21T20:31:19.084Z,168.63
2023-01-21T20:33:46.405Z,166.77
2023-01-21T20:36:23.675Z,163.63
2023-01-21T20:38:51.468Z,166.77
2023-01-21T20:41:19.034Z,168.50
2023-01-21T20:43:46.586Z,166.97
2023-01-21T20:46:27.936Z,168.00
2023-01-21T20:48:56.556Z,162.63
2023-01-21T20:51:24.077Z,163.67
2023-01-21T20:53:51.626Z,166.50
2023-01-21T20:56:28.526Z,173.07
2023-01-21T20:58:55.764Z,166.33
2023-01-21T21:01:25.139Z,169.00
2023-01-21T21:03:52.732Z,168.97
2023-01-21T21:06:28.907Z,167.13
2023-01-21T21:08:56.654Z,165.83
2023-01-21T21:11:23.820Z,162.87
2023-01-21T21:13:52.317Z,252.23
2023-01-21T21:16:31.619Z,168.33
2023-01-21T21:19:00.684Z,164.50
2023-01-21T21:21:27.920Z,162.20
2023-01-21T21:23:54.957Z,166.37
2023-01-21T21:26:29.335Z,160.47
2023-01-21T21:28:59.700Z,166.87
2023-01-21T21:31:32.768Z,161.63
2023-01-21T21:34:00.165Z,166.60
2023-01-21T21:36:27.358Z,172.37
2023-01-21T21:38:56.925Z,160.93
2023-01-21T21:41:44.842Z,171.40
2023-01-21T21:44:13.054Z,173.13
2023-01-21T21:46:58.926Z,165.43
2023-01-21T21:49:27.057Z,167.00
2023-01-21T21:51:54.183Z,166.27
2023-01-21T21:54:21.411Z,172.30
2023-01-21T21:56:48.576Z,156.57
2023-01-21T21:59:16.152Z,166.73
2023-01-21T22:01:44.548Z,170.07
2023-01-21T22:04:12.311Z,169.60
2023-01-21T22:06:39.923Z,170.40
2023-01-21T22:09:07.564Z,164.97
2023-01-21T22:11:34.790Z,166.73
2023-01-21T22:14:04.104Z,168.63
2023-01-21T22:16:32.735Z,163.87
2023-01-21T22:19:01.284Z,168.13
2023-01-21T22:21:34.206Z,175.70
2023-01-21T22:24:06.907Z,176.27
2023-01-21T22:26:38.034Z,174.53
2023-01-21T22:29:06.129Z,162.60
2023-01-21T22:31:34.217Z,161.80
2023-01-21T22:34:01.684Z,165.40
2023-01-21T22:36:30.274Z,164.23
2023-01-21T22:38:58.564Z,170.93
2023-01-21T22:41:26.179Z,161.53
2023-01-21T22:43:54.239Z,166.63
2023-01-21T22:46:25.040Z,163.47
2023-01-21T22:48:54.456Z,162.53
2023-01-21T22:51:23.018Z,157.57
2023-01-21T22:53:51.172Z,165.83
2023-01-21T22:56:25.352Z,156.67
2023-01-21T22:58:59.384Z,162.47
2023-01-21T23:01:31.513Z,168.43
2023-01-21T23:04:00.474Z,180.50
2023-01-21T23:06:28.137Z,176.63
2023-01-21T23:08:55.862Z,164.57
2023-01-21T23:11:23.311Z,168.33
2023-01-21T23:13:53.204Z,183.93
2023-01-21T23:16:21.337Z,163.73
2023-01-21T23:18:49.128Z,168.77
2023-01-21T23:21:20.105Z,166.20
2023-01-21T23:23:47.240Z,169.77
2023-01-21T23:26:14.752Z,167.13
2023-01-21T23:28:43.085Z,170.57
2023-01-21T23:31:14.573Z,176.50
2023-01-21T23:33:41.908Z,170.07
2023-01-21T23:36:12.892Z,172.13
2023-01-21T23:38:42.299Z,183.33
2023-01-21T23:41:16.903Z,166.47
2023-01-21T23:43:44.218Z,167.70
2023-01-21T23:46:16.511Z,175.40
2023-01-21T23:48:44.154Z,183.77
2023-01-21T23:51:14.091Z,161.90
2023-01-21T23:53:41.646Z,174.00
2023-01-21T23:56:22.850Z,167.07
2023-01-21T23:58:50.228Z,170.07
